Time;durP1;ratioP1;P1;durP2;ratioP2;P2;SDS_P1;SDS_P2;PMS_P1;PMS_P2;Temp;Humidity;BMP_temperature;BMP_pressure;BME280_temperature;BME280_humidity;BME280_pressure;Samples;Min_cycle;Max_cycle;Signal;HPM_P1;HPM_P2
2022/11/10 00:00:23;;;;;;;4.57;2.50;;;;;;;8.37;100.00;92772.28;5050912;28;20137;-76
2022/11/10 00:03:09;;;;;;;5.18;2.35;;;;;;;8.38;100.00;92771.28;5048894;28;20094;-76
2022/11/10 00:05:54;;;;;;;4.00;2.50;;;;;;;8.38;100.00;92772.03;5048883;28;20090;-76
2022/11/10 00:08:39;;;;;;;4.40;2.40;;;;;;;8.40;100.00;92769.16;5050510;28;20047;-76
2022/11/10 00:11:23;;;;;;;4.13;2.50;;;;;;;8.43;100.00;92772.06;5050479;28;20064;-76
2022/11/10 00:17:11;;;;;;;3.83;2.40;;;;;;;8.40;100.00;92767.38;5051736;28;20456;-75
2022/11/10 00:19:56;;;;;;;4.47;2.30;;;;;;;8.40;100.00;92775.19;5034558;28;20060;-76
2022/11/10 00:22:40;;;;;;;3.88;2.10;;;;;;;8.40;100.00;92767.38;5034800;28;20612;-76
2022/11/10 00:25:26;;;;;;;3.33;1.92;;;;;;;8.40;100.00;92769.97;5036947;28;20090;-76
2022/11/10 00:28:10;;;;;;;3.88;2.00;;;;;;;8.42;100.00;92765.28;5052106;28;20414;-76
2022/11/10 00:30:54;;;;;;;5.57;2.20;;;;;;;8.41;100.00;92766.31;5053609;28;20384;-76
2022/11/10 00:33:40;;;;;;;3.47;1.98;;;;;;;8.39;100.00;92767.59;5054536;28;20044;-76
2022/11/10 00:36:25;;;;;;;3.42;2.00;;;;;;;8.38;100.00;92764.22;5053919;28;20040;-76
2022/11/10 00:39:09;;;;;;;4.13;1.98;;;;;;;8.35;100.00;92762.13;5047883;28;20048;-75
2022/11/10 00:41:54;;;;;;;3.53;2.03;;;;;;;8.34;100.00;92760.56;5053302;28;20060;-76
2022/11/10 00:44:38;;;;;;;3.85;1.83;;;;;;;8.37;100.00;92756.66;5038870;28;20138;-76
2022/11/10 00:47:22;;;;;;;3.42;2.00;;;;;;;8.36;100.00;92758.47;5053811;28;20095;-76
2022/11/10 00:50:07;;;;;;;4.20;2.28;;;;;;;8.34;100.00;92760.56;5036649;28;20087;-76
2022/11/10 00:52:51;;;;;;;3.83;2.13;;;;;;;8.36;100.00;92755.09;5053259;28;20055;-76
2022/11/10 00:55:39;;;;;;;4.50;2.25;;;;;;;8.36;100.00;92758.47;5039028;28;20044;-76
2022/11/10 00:58:23;;;;;;;3.60;1.92;;;;;;;8.63;100.00;92758.16;5053850;28;20111;-76
2022/11/10 01:01:08;;;;;;;4.18;2.00;;;;;;;8.62;100.00;92761.03;5052112;28;20453;-76
2022/11/10 01:03:53;;;;;;;4.30;1.92;;;;;;;8.72;100.00;92761.78;5053942;28;20044;-76
2022/11/10 01:06:37;;;;;;;4.95;2.22;;;;;;;8.70;100.00;92769.09;5052585;28;20048;-76
2022/11/10 01:09:21;;;;;;;3.97;1.90;;;;;;;8.58;100.00;92760.81;5053696;28;20094;-76
2022/11/10 01:12:05;;;;;;;4.68;1.80;;;;;;;8.53;100.00;92763.41;5052857;28;20044;-76
2022/11/10 01:14:49;;;;;;;3.85;1.80;;;;;;;8.48;100.00;92766.03;5052874;28;20052;-76
2022/11/10 01:17:33;;;;;;;4.20;1.85;;;;;;;8.46;100.00;92768.13;5052490;28;20099;-76
2022/11/10 01:20:16;;;;;;;3.80;2.00;;;;;;;8.40;100.00;92761.31;5034182;28;20057;-76
2022/11/10 01:23:01;;;;;;;3.63;1.70;;;;;;;8.40;100.00;92772.59;5033702;28;20131;-76
2022/11/10 01:25:45;;;;;;;5.45;2.10;;;;;;;8.37;100.00;92778.28;5032225;28;20191;-76
2022/11/10 01:28:30;;;;;;;3.85;2.08;;;;;;;8.33;100.00;92775.44;5047289;28;20086;-76
2022/11/10 01:31:18;;;;;;;3.20;1.65;;;;;;;8.34;100.00;92778.81;5053503;28;20052;-75
2022/11/10 01:34:02;;;;;;;5.43;2.05;;;;;;;8.33;100.00;92783.28;5051929;28;20047;-76
2022/11/10 01:36:47;;;;;;;3.30;2.00;;;;;;;8.30;100.00;92780.41;5053378;28;20521;-76
2022/11/10 01:39:31;;;;;;;4.50;2.20;;;;;;;8.30;100.00;92790.84;5052866;28;20048;-75
2022/11/10 01:42:21;;;;;;;104.45;5.32;;;;;;;8.24;100.00;92797.09;5052287;28;20090;-76
2022/11/10 01:45:23;;;;;;;6.70;3.97;;;;;;;8.18;100.00;92796.34;5053007;28;20048;-76
2022/11/10 01:48:09;;;;;;;5.50;3.70;;;;;;;8.11;100.00;92799.22;5051306;28;20265;-76
2022/11/10 01:50:56;;;;;;;4.45;2.70;;;;;;;8.09;100.00;92801.31;5051511;28;20294;-75
2022/11/10 01:53:45;;;;;;;3.80;2.50;;;;;;;8.02;100.00;92789.59;5051150;28;20096;-76
2022/11/10 01:56:34;;;;;;;5.13;2.05;;;;;;;8.04;100.00;92803.13;5033151;28;20067;-76
2022/11/10 01:59:24;;;;;;;3.05;1.90;;;;;;;8.01;100.00;92804.41;5034128;28;20048;-76
2022/11/10 02:02:30;;;;;;;5.15;2.03;;;;;;;8.02;100.00;92805.22;5032928;28;20053;-75
2022/11/10 02:05:14;;;;;;;3.92;2.33;;;;;;;8.02;100.00;92811.22;5042753;28;20452;-76
2022/11/10 02:08:01;;;;;;;5.25;2.50;;;;;;;8.01;100.00;92814.84;5031593;28;20083;-75
2022/11/10 02:10:45;;;;;;;3.80;2.15;;;;;;;7.98;100.00;92814.59;5039072;28;20441;-76
2022/11/10 02:13:29;;;;;;;4.53;2.17;;;;;;;7.91;100.00;92812.25;5051692;28;20442;-75
2022/11/10 02:16:13;;;;;;;4.13;2.30;;;;;;;7.86;100.00;92813.03;5032654;28;20111;-76
2022/11/10 02:19:17;;;;;;;3.60;2.20;;;;;;;7.83;100.00;92828.41;5032473;28;20056;-76
2022/11/10 02:22:01;;;;;;;4.32;2.50;;;;;;;7.79;100.00;92822.16;5047261;28;20566;-76
2022/11/10 02:24:45;;;;;;;4.55;2.40;;;;;;;7.77;100.00;92824.22;5051573;28;20545;-76
2022/11/10 02:27:29;;;;;;;5.10;2.38;;;;;;;7.75;100.00;92826.34;5051257;28;20513;-76
2022/11/10 02:30:14;;;;;;;4.00;2.40;;;;;;;7.70;100.00;92824.47;5052201;28;20051;-76
2022/11/10 02:32:58;;;;;;;3.97;2.50;;;;;;;7.69;100.00;92826.31;5051718;28;20110;-76
2022/11/10 02:35:46;;;;;;;4.40;2.50;;;;;;;7.69;100.00;92834.13;5049342;28;20047;-76
2022/11/10 02:38:30;;;;;;;3.67;2.20;;;;;;;7.68;100.00;92835.19;5050906;28;20087;-76
2022/11/10 02:41:14;;;;;;;3.88;2.30;;;;;;;7.68;100.00;92829.97;5051762;28;20142;-76
2022/11/10 02:43:58;;;;;;;3.25;2.20;;;;;;;7.65;100.00;92827.09;5051764;28;20426;-76
2022/11/10 02:46:42;;;;;;;3.63;2.20;;;;;;;7.66;100.00;92826.84;5049789;28;20410;-76
2022/11/10 02:49:26;;;;;;;4.25;2.30;;;;;;;7.65;100.00;92827.88;5052094;28;20094;-76
2022/11/10 02:52:10;;;;;;;4.28;2.40;;;;;;;7.67;100.00;92831.00;5051626;28;20457;-76
2022/11/10 02:54:54;;;;;;;4.40;2.40;;;;;;;7.68;100.00;92832.59;5051998;28;20051;-76
2022/11/10 02:57:39;;;;;;;5.10;2.67;;;;;;;7.71;100.00;92833.88;5050689;28;20048;-76
2022/11/10 03:00:24;;;;;;;5.20;2.53;;;;;;;7.72;100.00;92833.63;5051653;28;20541;-76
2022/11/10 03:03:08;;;;;;;5.40;2.42;;;;;;;7.73;100.00;92829.19;5050830;28;20095;-76
2022/11/10 03:05:52;;;;;;;4.55;2.53;;;;;;;7.75;100.00;92836.75;5051806;28;20135;-76
2022/11/10 03:08:37;;;;;;;4.65;2.72;;;;;;;7.74;100.00;92829.97;5050691;28;20055;-76
2022/11/10 03:11:22;;;;;;;5.72;2.67;;;;;;;7.74;100.00;92830.75;5049251;28;20115;-76
2022/11/10 03:14:06;;;;;;;6.43;2.58;;;;;;;7.77;100.00;92829.44;5051007;28;20052;-76
2022/11/10 03:16:50;;;;;;;4.80;2.58;;;;;;;7.78;100.00;92831.03;5051204;28;20458;-76
2022/11/10 03:19:34;;;;;;;6.18;2.67;;;;;;;7.78;100.00;92828.41;5051436;28;20132;-76
2022/11/10 03:22:18;;;;;;;6.82;2.63;;;;;;;7.77;100.00;92835.47;5050435;28;20048;-76
2022/11/10 03:25:02;;;;;;;4.00;2.58;;;;;;;7.78;100.00;92846.66;5050116;28;20410;-76
2022/11/10 03:27:46;;;;;;;3.97;2.40;;;;;;;7.76;100.00;92846.13;5050252;28;20048;-76
2022/11/10 03:30:30;;;;;;;6.40;2.70;;;;;;;7.73;100.00;92844.84;5051432;28;20521;-76
2022/11/10 03:33:15;;;;;;;4.20;2.63;;;;;;;7.69;100.00;92846.38;5050418;28;20160;-76
2022/11/10 03:36:00;;;;;;;5.78;2.60;;;;;;;7.71;100.00;92850.28;5031317;28;20048;-76
2022/11/10 03:38:44;;;;;;;5.03;2.60;;;;;;;7.71;100.00;92860.72;5031308;28;20140;-76
2022/11/10 03:41:28;;;;;;;6.00;2.70;;;;;;;7.72;100.00;92874.53;5030977;28;20048;-76
2022/11/10 03:44:12;;;;;;;5.70;2.53;;;;;;;7.72;100.00;92870.13;5039937;28;20044;-76
2022/11/10 03:46:57;;;;;;;4.15;2.28;;;;;;;7.73;100.00;92870.88;5048957;28;20060;-76
2022/11/10 03:49:41;;;;;;;4.03;2.30;;;;;;;7.71;100.00;92878.19;5045978;28;20122;-76
2022/11/10 03:52:25;;;;;;;4.05;2.20;;;;;;;7.70;100.00;92882.63;5043964;28;20091;-76
2022/11/10 03:55:13;;;;;;;5.45;2.40;;;;;;;7.70;100.00;92876.59;5029906;28;20428;-76
2022/11/10 03:58:02;;;;;;;6.38;2.50;;;;;;;7.70;100.00;92887.84;5049267;28;20044;-76
2022/11/10 04:00:46;;;;;;;3.65;2.22;;;;;;;7.69;100.00;92888.06;5050686;28;20048;-76
2022/11/10 04:03:29;;;;;;;4.20;2.25;;;;;;;7.67;100.00;92888.31;5049964;28;20450;-76
2022/11/10 04:09:17;;;;;;;5.35;2.33;;;;;;;7.69;100.00;92896.66;5050739;28;20183;-76
2022/11/10 04:18:26;;;;;;;4.50;2.67;;;;;;;7.62;100.00;92890.16;5030850;28;20259;-76
2022/11/10 04:21:11;;;;;;;4.22;2.60;;;;;;;7.57;100.00;92897.97;5029279;28;20569;-76
2022/11/10 04:23:54;;;;;;;6.03;2.50;;;;;;;7.53;100.00;92895.09;5042771;28;20526;-76
2022/11/10 04:26:41;;;;;;;3.38;1.98;;;;;;;7.50;100.00;92900.81;5050283;28;20044;-76
2022/11/10 04:29:25;;;;;;;3.47;2.00;;;;;;;7.42;100.00;92902.06;5050654;28;20114;-75
2022/11/10 04:32:09;;;;;;;3.20;1.90;;;;;;;7.38;100.00;92901.00;5050586;28;20064;-76
2022/11/10 04:34:53;;;;;;;3.38;1.95;;;;;;;7.36;100.00;92912.72;5047570;28;20541;-76
2022/11/10 04:37:37;;;;;;;3.90;2.30;;;;;;;7.32;100.00;92911.66;5050397;28;20136;-76
2022/11/10 04:40:21;;;;;;;3.95;2.30;;;;;;;7.27;100.00;92910.63;5049374;28;20521;-75
2022/11/10 04:43:05;;;;;;;3.25;1.95;;;;;;;7.26;100.00;92913.50;5049418;28;20052;-76
2022/11/10 04:45:49;;;;;;;3.72;2.10;;;;;;;7.22;100.00;92913.19;5047242;28;20102;-76
2022/11/10 04:48:34;;;;;;;4.05;2.10;;;;;;;7.17;100.00;92915.78;5042895;28;20060;-76
2022/11/10 04:51:20;;;;;;;4.97;2.00;;;;;;;7.12;100.00;92922.81;5050565;28;20055;-75
2022/11/10 04:54:05;;;;;;;3.42;1.85;;;;;;;7.09;100.00;92918.88;5049451;28;20091;-76
2022/11/10 04:56:50;;;;;;;4.95;2.15;;;;;;;7.05;100.00;92923.03;5047350;28;20064;-76
2022/11/10 04:59:33;;;;;;;4.40;2.15;;;;;;;6.99;100.00;92916.22;5050239;28;20152;-78
2022/11/10 05:02:17;;;;;;;3.72;1.92;;;;;;;6.97;100.00;92924.28;5054084;28;20051;-76
2022/11/10 05:05:02;;;;;;;3.58;2.00;;;;;;;6.95;100.00;92928.97;5054223;28;20469;-76
2022/11/10 05:07:47;;;;;;;3.60;2.20;;;;;;;6.93;100.00;92936.22;5052630;28;20064;-76
2022/11/10 05:10:33;;;;;;;5.25;2.25;;;;;;;6.92;100.00;92933.91;5053879;28;20086;-76
2022/11/10 05:13:17;;;;;;;6.60;2.10;;;;;;;6.91;100.00;92943.50;5053967;28;20567;-76
2022/11/10 05:16:02;;;;;;;4.13;2.20;;;;;;;6.89;100.00;92948.19;5050747;28;20095;-76
2022/11/10 05:18:52;;;;;;;3.63;2.00;;;;;;;6.87;100.00;92952.88;5050882;28;20096;-76
2022/11/10 05:21:37;;;;;;;4.53;2.40;;;;;;;6.85;100.00;92955.72;5051612;28;20047;-75
2022/11/10 05:24:21;;;;;;;4.38;2.20;;;;;;;6.83;100.00;92941.41;5053599;28;20544;-75
2022/11/10 05:27:07;;;;;;;3.80;2.20;;;;;;;6.84;100.00;92953.34;5060050;28;20043;-75
2022/11/10 05:29:51;;;;;;;3.90;2.53;;;;;;;6.84;100.00;92955.97;5044659;28;20406;-75
2022/11/10 05:32:36;;;;;;;4.28;2.15;;;;;;;6.82;100.00;92961.44;5052191;28;20484;-76
2022/11/10 05:35:20;;;;;;;4.63;2.30;;;;;;;6.82;100.00;92963.22;5052857;28;20102;-76
2022/11/10 05:38:05;;;;;;;4.38;2.15;;;;;;;6.82;100.00;92960.63;5052872;28;20087;-75
2022/11/10 05:40:50;;;;;;;5.47;2.78;;;;;;;6.80;100.00;92971.31;5053010;28;20052;-77
2022/11/10 05:43:34;;;;;;;6.28;2.60;;;;;;;6.80;100.00;92975.72;5049438;28;20114;-75
2022/11/10 05:46:18;;;;;;;4.88;2.10;;;;;;;6.80;100.00;92984.31;5048936;28;20068;-75
2022/11/10 05:49:02;;;;;;;4.72;2.30;;;;;;;6.76;100.00;92985.06;5049012;28;20052;-75
2022/11/10 05:51:46;;;;;;;4.95;2.40;;;;;;;6.77;100.00;92986.63;5052797;28;20098;-75
2022/11/10 05:54:29;;;;;;;4.82;2.10;;;;;;;6.76;100.00;92992.88;5050859;28;20048;-75
2022/11/10 05:57:13;;;;;;;4.60;2.08;;;;;;;6.73;100.00;92993.34;5043040;28;20082;-75
2022/11/10 05:59:57;;;;;;;4.50;2.30;;;;;;;6.71;100.00;93004.03;5045121;28;20384;-77
2022/11/10 06:02:42;;;;;;;3.97;2.13;;;;;;;6.71;100.00;93003.22;5050867;28;20100;-76
2022/11/10 06:05:28;;;;;;;4.50;2.25;;;;;;;6.67;100.00;93001.13;5052685;28;20040;-76
2022/11/10 06:08:13;;;;;;;5.43;2.20;;;;;;;6.67;100.00;93011.53;5051501;28;20118;-76
2022/11/10 06:10:57;;;;;;;5.22;2.15;;;;;;;6.65;100.00;93020.63;5052024;28;20059;-76
2022/11/10 06:13:41;;;;;;;4.57;2.00;;;;;;;6.63;100.00;93020.09;5051174;28;20176;-76
2022/11/10 06:16:25;;;;;;;4.00;2.20;;;;;;;6.61;100.00;93027.34;5052068;28;20144;-76
2022/11/10 06:19:08;;;;;;;5.55;2.22;;;;;;;6.60;100.00;93034.38;5037590;28;20060;-76
2022/11/10 06:21:52;;;;;;;3.28;1.90;;;;;;;6.63;100.00;93027.91;5051607;28;20072;-75
2022/11/10 06:24:36;;;;;;;4.05;2.28;;;;;;;6.64;100.00;93042.47;5050632;28;20110;-76
2022/11/10 06:27:20;;;;;;;4.50;2.60;;;;;;;6.61;100.00;93030.72;5035339;28;20108;-76
2022/11/10 06:30:04;;;;;;;4.40;2.30;;;;;;;6.59;100.00;93032.78;5050877;28;20048;-76
2022/11/10 06:32:48;;;;;;;3.60;2.00;;;;;;;6.68;100.00;93039.09;5050861;28;20422;-76
2022/11/10 06:35:33;;;;;;;5.82;2.30;;;;;;;6.76;100.00;93039.72;5051179;28;20830;-76
2022/11/10 06:38:17;;;;;;;3.72;2.20;;;;;;;6.91;100.00;93042.41;5049543;28;20529;-76
2022/11/10 06:41:01;;;;;;;3.78;2.20;;;;;;;7.16;100.00;93047.03;5016165;28;20055;-76
2022/11/10 06:43:45;;;;;;;4.22;2.33;;;;;;;7.25;100.00;93045.50;5032467;28;20139;-76
2022/11/10 06:46:29;;;;;;;3.28;2.10;;;;;;;7.55;100.00;93057.13;5051649;28;20048;-76
2022/11/10 06:49:13;;;;;;;3.47;2.20;;;;;;;7.92;100.00;93051.03;5052269;28;20451;-76
2022/11/10 06:51:57;;;;;;;4.85;2.30;;;;;;;8.43;100.00;93059.03;5050168;28;20072;-75
2022/11/10 06:54:41;;;;;;;3.67;2.20;;;;;;;9.20;100.00;93064.28;5042432;28;20075;-76
2022/11/10 06:57:26;;;;;;;4.93;2.10;;;;;;;10.19;100.00;93059.28;5039937;28;20422;-76
2022/11/10 07:00:10;;;;;;;4.60;1.90;;;;;;;10.74;100.00;93063.72;5034784;28;20044;-76
2022/11/10 07:03:03;;;;;;;3.53;1.90;;;;;;;11.38;100.00;93067.16;5041894;28;20098;-76
2022/11/10 07:05:47;;;;;;;3.85;1.90;;;;;;;12.10;100.00;93077.72;5051378;28;20450;-76
2022/11/10 07:08:31;;;;;;;5.82;1.90;;;;;;;13.03;100.00;93085.13;5050705;28;20098;-76
2022/11/10 07:11:15;;;;;;;4.50;1.65;;;;;;;14.09;97.41;93081.75;5051629;28;20478;-77
2022/11/10 07:13:59;;;;;;;4.35;1.60;;;;;;;15.20;98.42;93086.84;5051530;28;20167;-76
2022/11/10 07:16:43;;;;;;;3.38;1.70;;;;;;;16.10;85.30;93086.75;5051197;28;20056;-76
2022/11/10 07:19:27;;;;;;;3.58;1.70;;;;;;;16.77;80.34;93093.56;5051717;28;20114;-76
2022/11/10 07:22:11;;;;;;;3.22;1.80;;;;;;;17.68;76.44;93105.09;5051515;28;20560;-76
2022/11/10 07:24:55;;;;;;;2.67;1.50;;;;;;;18.56;71.93;93110.13;5050411;28;20083;-76
2022/11/10 07:27:39;;;;;;;6.75;1.90;;;;;;;19.58;66.80;93110.81;5051299;28;20568;-77
2022/11/10 07:30:23;;;;;;;3.33;1.80;;;;;;;20.59;62.01;93113.78;5051428;28;20048;-76
2022/11/10 07:33:12;;;;;;;3.75;2.00;;;;;;;17.96;68.24;93115.31;5051037;28;20106;-76
2022/11/10 07:36:02;;;;;;;4.25;2.20;;;;;;;16.76;75.64;93117.69;5050135;28;20052;-76
2022/11/10 07:38:46;;;;;;;5.68;2.63;;;;;;;16.67;79.36;93115.03;5050253;28;20052;-76
2022/11/10 07:41:29;;;;;;;3.92;2.40;;;;;;;17.42;75.64;93128.94;5051239;28;20044;-76
2022/11/10 07:44:14;;;;;;;4.82;2.53;;;;;;;17.60;73.47;93127.06;5035993;28;20284;-76
2022/11/10 07:46:57;;;;;;;6.93;2.17;;;;;;;16.92;75.01;93129.41;5050952;28;20102;-76
2022/11/10 07:49:41;;;;;;;6.22;3.00;;;;;;;15.22;82.66;93134.00;5049947;28;20097;-76
2022/11/10 07:52:25;;;;;;;4.22;2.53;;;;;;;15.35;86.90;93138.44;5050902;28;20075;-76
2022/11/10 07:55:09;;;;;;;4.43;2.30;;;;;;;15.68;82.48;93125.78;5050091;28;20219;-76
2022/11/10 07:57:57;;;;;;;4.25;2.10;;;;;;;15.20;85.69;93137.72;5035765;28;20063;-76
2022/11/10 08:00:42;;;;;;;7.13;2.75;;;;;;;16.53;81.84;93135.53;5049384;28;20064;-76
2022/11/10 08:03:27;;;;;;;5.13;2.90;;;;;;;16.06;84.12;93143.13;5049543;28;20095;-76
2022/11/10 08:06:11;;;;;;;7.88;2.70;;;;;;;16.14;82.35;93140.50;5035875;28;20067;-76
2022/11/10 08:08:55;;;;;;;5.07;2.40;;;;;;;16.11;85.50;93145.63;5050553;28;20090;-76
2022/11/10 08:11:39;;;;;;;5.20;2.83;;;;;;;16.95;79.00;93146.50;5049589;28;20077;-76
2022/11/10 08:14:24;;;;;;;5.63;2.60;;;;;;;17.33;76.95;93140.63;5050899;28;20410;-76
2022/11/10 08:17:08;;;;;;;7.63;2.90;;;;;;;17.86;72.28;93147.47;5049825;28;20144;-76
2022/11/10 08:19:52;;;;;;;5.50;3.47;;;;;;;17.35;73.71;93151.69;5050743;28;20513;-76
2022/11/10 08:22:36;;;;;;;6.13;3.20;;;;;;;16.84;76.57;93154.75;5049261;28;20509;-76
2022/11/10 08:25:20;;;;;;;7.13;3.40;;;;;;;17.33;75.22;93145.91;5050785;28;20044;-76
2022/11/10 08:28:13;;;;;;;4.53;2.92;;;;;;;18.07;73.20;93156.28;5050389;28;20052;-76
2022/11/10 08:30:57;;;;;;;4.05;2.72;;;;;;;18.48;71.71;93154.09;5050681;28;20044;-76
2022/11/10 08:33:41;;;;;;;4.10;2.70;;;;;;;18.28;73.82;93158.22;5050407;28;20084;-76
2022/11/10 08:36:25;;;;;;;6.55;2.55;;;;;;;19.38;68.29;93160.16;5053914;28;20040;-76
2022/11/10 08:39:09;;;;;;;6.18;2.90;;;;;;;19.83;64.63;93160.25;5054446;28;20439;-76
2022/11/10 08:41:53;;;;;;;6.78;4.13;;;;;;;19.91;63.21;93172.69;5054276;28;20044;-76
2022/11/10 08:44:37;;;;;;;6.55;4.25;;;;;;;19.19;66.98;93169.34;5034343;28;20068;-76
2022/11/10 08:47:21;;;;;;;7.03;4.57;;;;;;;18.47;69.54;93187.78;5034216;28;20060;-75
2022/11/10 08:50:06;;;;;;;7.28;4.32;;;;;;;17.65;72.56;93185.16;5033420;28;20052;-76
2022/11/10 08:52:50;;;;;;;6.13;4.30;;;;;;;17.28;75.31;93183.91;5038493;28;20106;-76
2022/11/10 08:55:34;;;;;;;6.00;4.40;;;;;;;18.24;72.05;93187.25;5053456;28;20063;-76
2022/11/10 08:58:21;;;;;;;6.32;3.78;;;;;;;18.34;69.18;93198.59;5053261;28;20044;-76
2022/11/10 09:01:10;;;;;;;6.18;4.20;;;;;;;18.12;69.13;93197.72;5054211;28;20048;-76
2022/11/10 09:03:54;;;;;;;6.70;4.00;;;;;;;17.49;72.66;93194.63;5053712;28;20043;-76
2022/11/10 09:06:38;;;;;;;6.68;3.47;;;;;;;17.11;74.36;93197.09;5054052;28;20450;-76
2022/11/10 09:09:25;;;;;;;4.00;2.53;;;;;;;16.54;77.10;93193.34;5053842;28;20071;-76
2022/11/10 09:12:09;;;;;;;6.57;3.38;;;;;;;17.76;75.65;93200.69;5053908;28;20114;-76
2022/11/10 09:14:53;;;;;;;5.68;3.80;;;;;;;18.36;70.71;93207.78;5053641;28;20044;-76
2022/11/10 09:17:38;;;;;;;5.05;2.97;;;;;;;18.24;68.45;93211.09;5053890;28;20059;-76
2022/11/10 09:20:23;;;;;;;4.55;2.83;;;;;;;17.23;71.80;93208.63;5053746;28;20099;-76
2022/11/10 09:23:16;;;;;;;5.63;3.28;;;;;;;17.25;72.07;93214.41;5053945;28;20303;-76
2022/11/10 09:26:00;;;;;;;7.15;4.88;;;;;;;17.01;73.79;93216.69;5053422;28;20048;-76
2022/11/10 09:28:44;;;;;;;6.80;4.25;;;;;;;16.89;74.52;93224.41;5053292;28;20060;-76
2022/11/10 09:31:29;;;;;;;6.43;3.90;;;;;;;16.25;77.04;93230.81;5053667;28;20051;-76
2022/11/10 09:34:13;;;;;;;4.82;2.72;;;;;;;16.17;79.03;93228.94;5053499;28;20060;-76
2022/11/10 09:36:57;;;;;;;5.68;3.40;;;;;;;16.12;82.05;93215.81;5033325;28;20570;-76
2022/11/10 09:39:41;;;;;;;5.82;3.65;;;;;;;16.43;78.96;93232.47;5033513;28;20107;-76
2022/11/10 09:42:30;;;;;;;5.95;3.63;;;;;;;16.60;78.08;93231.00;5032337;28;20290;-76
2022/11/10 09:45:34;;;;;;;7.15;3.78;;;;;;;16.35;79.22;93230.56;5037623;28;20048;-76
2022/11/10 09:48:32;;;;;;;5.82;3.35;;;;;;;16.52;76.46;93231.72;5052256;28;20107;-76
2022/11/10 09:51:22;;;;;;;3.83;2.35;;;;;;;15.37;79.89;93241.81;5053000;28;20043;-76
2022/11/10 09:54:34;;;;;;;8.18;4.18;;;;;;;14.55;89.01;93248.72;5052882;28;20071;-76
2022/11/10 09:57:25;;;;;;;6.03;3.77;;;;;;;14.63;86.33;93252.53;5052820;28;20582;-76
2022/11/10 10:00:15;;;;;;;4.38;2.38;;;;;;;14.68;86.65;93260.31;5053221;28;20586;-76
2022/11/10 10:03:04;;;;;;;5.28;3.28;;;;;;;14.86;85.91;93262.09;5052928;28;20055;-76
2022/11/10 10:06:01;;;;;;;6.32;2.45;;;;;;;14.18;89.74;93265.41;5051821;28;20087;-76
2022/11/10 10:09:29;;;;;;;7.35;3.67;;;;;;;13.91;92.88;93272.91;5052775;28;20048;-76
2022/11/10 10:12:35;;;;;;;4.88;3.25;;;;;;;14.22;92.05;93280.31;5031072;28;20134;-76
2022/11/10 10:15:37;;;;;;;4.22;2.33;;;;;;;14.30;87.60;93282.31;5052680;28;20094;-76
2022/11/10 10:18:22;;;;;;;;;;;;;;;14.25;86.11;93281.59;5052469;28;20056;-76
2022/11/10 10:21:37;;;;;;;4.20;2.70;;;;;;;14.41;89.68;93282.13;5052658;28;20001;-76
2022/11/10 10:24:26;;;;;;;4.95;2.92;;;;;;;14.68;88.81;93271.66;5052623;28;20089;-76
2022/11/10 10:27:18;;;;;;;7.03;3.65;;;;;;;15.04;90.26;93278.91;5052418;28;20098;-76
2022/11/10 10:30:11;;;;;;;6.80;3.80;;;;;;;15.20;86.59;93282.78;5052386;28;20118;-76
2022/11/10 10:33:08;;;;;;;5.60;3.58;;;;;;;15.58;84.95;93279.09;5052469;28;20052;-76
2022/11/10 10:35:53;;;;;;;6.95;4.75;;;;;;;15.77;84.94;93279.75;5052416;28;20094;-76
2022/11/10 10:38:38;;;;;;;8.68;4.45;;;;;;;15.34;86.00;93281.97;5052117;28;20107;-76
2022/11/10 10:41:26;;;;;;;7.10;4.78;;;;;;;14.98;90.60;93290.59;5031686;28;20384;-76
2022/11/10 10:44:14;;;;;;;8.45;4.70;;;;;;;14.57;93.67;93276.34;5031441;28;20139;-76
2022/11/10 10:47:00;;;;;;;9.27;5.70;;;;;;;14.56;92.14;93281.88;5032164;28;20044;-76
2022/11/10 10:49:44;;;;;;;8.27;5.03;;;;;;;14.83;93.22;93285.63;5036291;28;20083;-76
2022/11/10 10:52:28;;;;;;;8.38;4.95;;;;;;;15.34;88.28;93281.97;5045290;28;20083;-76
2022/11/10 10:55:12;;;;;;;8.10;5.03;;;;;;;15.12;90.89;93296.66;5031950;28;20520;-77
2022/11/10 10:58:23;;;;;;;8.10;4.10;;;;;;;14.59;92.71;93297.13;5032414;28;20044;-77
2022/11/10 11:01:31;;;;;;;9.32;6.20;;;;;;;14.47;95.73;93302.03;5040450;28;20116;-77
2022/11/10 11:04:29;;;;;;;8.68;5.53;;;;;;;14.80;92.72;93305.44;5051693;28;20075;-77
2022/11/10 11:07:24;;;;;;;7.03;4.95;;;;;;;15.12;92.39;93299.28;5051605;28;20073;-77
2022/11/10 11:10:30;;;;;;;9.07;5.65;;;;;;;15.19;90.33;93304.16;5051544;28;20040;-78
2022/11/10 11:13:21;;;;;;;8.18;4.65;;;;;;;14.78;89.76;93307.59;5050900;28;20520;-77
2022/11/10 11:16:08;;;;;;;6.65;4.15;;;;;;;14.91;90.72;93301.53;5051822;28;20066;-77
2022/11/10 11:18:52;;;;;;;8.20;4.05;;;;;;;15.36;88.13;93306.22;5051672;28;20052;-77
2022/11/10 11:21:50;;;;;;;6.50;4.10;;;;;;;14.83;88.58;93315.38;5050647;28;20445;-77
2022/11/10 11:24:40;;;;;;;6.70;4.28;;;;;;;14.58;90.75;93311.34;5044595;28;20125;-77
2022/11/10 11:27:58;;;;;;;7.97;4.15;;;;;;;14.60;90.67;93311.84;5031245;28;20092;-77
2022/11/10 11:31:06;;;;;;;7.30;4.30;;;;;;;14.54;92.46;93312.97;5031216;28;20051;-77
2022/11/10 11:33:54;;;;;;;6.43;3.67;;;;;;;14.82;92.41;93307.78;5045110;28;20454;-78
2022/11/10 11:37:00;;;;;;;5.65;3.10;;;;;;;15.22;89.64;93313.34;5051428;28;20044;-77
2022/11/10 11:40:00;;;;;;;4.60;3.10;;;;;;;15.03;90.15;93308.19;5050894;28;20044;-77
2022/11/10 11:42:52;;;;;;;6.45;3.50;;;;;;;15.41;85.65;93319.28;5051031;28;20560;-77
2022/11/10 11:45:43;;;;;;;;;;;;;;;15.69;86.62;93320.00;5051162;28;20056;-77
2022/11/10 11:48:45;;;;;;;5.97;3.22;;;;;;;15.82;85.58;93316.59;5050750;28;20433;-77
2022/11/10 11:52:02;;;;;;;5.70;3.50;;;;;;;15.65;86.94;93312.97;5051131;28;20094;-77
2022/11/10 11:54:47;;;;;;;7.40;3.15;;;;;;;15.27;88.79;93334.34;5049718;28;20718;-77
2022/11/10 11:57:49;;;;;;;5.32;2.85;;;;;;;15.10;87.50;93329.66;5050092;28;20183;-78
2022/11/10 12:00:49;;;;;;;5.82;3.25;;;;;;;15.09;89.55;93339.44;5050956;28;20122;-77
2022/11/10 12:04:11;;;;;;;5.43;3.50;;;;;;;14.94;89.13;93329.16;5051002;28;20051;-77
2022/11/10 12:06:55;;;;;;;8.93;4.30;;;;;;;14.11;94.62;93336.84;5029804;28;20120;-77
2022/11/10 12:09:45;;;;;;;6.88;3.83;;;;;;;14.50;94.08;93347.03;5030704;28;20099;-77
2022/11/10 12:12:55;;;;;;;5.90;3.53;;;;;;;15.06;90.08;93345.28;5030177;28;20060;-77
2022/11/10 12:16:14;;;;;;;6.93;4.00;;;;;;;14.70;90.61;93343.31;5040495;28;20560;-77
2022/11/10 12:19:17;;;;;;;6.63;4.07;;;;;;;14.22;94.84;93351.41;5049328;28;20055;-77
2022/11/10 12:22:12;;;;;;;6.72;4.10;;;;;;;13.82;97.68;93353.56;5049473;28;20047;-77
2022/11/10 12:25:26;;;;;;;6.07;4.25;;;;;;;13.42;100.00;93358.31;5050524;28;20048;-77
2022/11/10 12:28:18;;;;;;;7.43;3.90;;;;;;;13.04;100.00;93362.69;5050707;28;20060;-77
2022/11/10 12:31:09;;;;;;;6.93;4.57;;;;;;;12.92;100.00;93363.03;5050834;28;20410;-77
2022/11/10 12:34:04;;;;;;;5.88;4.00;;;;;;;13.45;100.00;93363.00;5050359;28;20079;-77
2022/11/10 12:36:50;;;;;;;7.15;4.07;;;;;;;13.61;100.00;93371.50;5050163;28;20047;-77
2022/11/10 12:39:52;;;;;;;7.07;3.60;;;;;;;13.94;100.00;93375.00;5050263;28;20106;-77
2022/11/10 12:42:37;;;;;;;6.35;3.95;;;;;;;13.52;100.00;93375.81;5050519;28;20051;-77
2022/11/10 12:45:31;;;;;;;6.18;3.72;;;;;;;13.28;100.00;93381.09;5049245;28;20056;-77
2022/11/10 12:48:17;;;;;;;7.93;3.90;;;;;;;13.26;100.00;93383.19;5049854;28;20077;-77
2022/11/10 12:51:29;;;;;;;7.10;4.05;;;;;;;13.00;100.00;93378.22;5050284;28;20068;-77
2022/11/10 12:54:16;;;;;;;5.63;3.80;;;;;;;12.99;100.00;93387.19;5050539;28;20098;-77
2022/11/10 12:57:24;;;;;;;5.07;3.20;;;;;;;13.66;100.00;93381.16;5049865;28;20040;-77
2022/11/10 13:00:18;;;;;;;5.80;3.33;;;;;;;14.50;97.73;93386.56;5050612;28;20135;-77
2022/11/10 13:03:02;;;;;;;7.10;3.47;;;;;;;14.56;93.83;93380.13;5050311;28;20292;-77
2022/11/10 13:05:54;;;;;;;7.28;3.15;;;;;;;14.78;94.20;93392.69;5050257;28;20612;-78
2022/11/10 13:08:41;;;;;;;6.32;3.65;;;;;;;14.75;93.39;93395.16;5049909;28;20143;-77
2022/11/10 13:11:35;;;;;;;4.25;2.90;;;;;;;14.85;93.06;93381.00;5030353;28;20336;-77
2022/11/10 13:14:23;;;;;;;6.53;3.70;;;;;;;14.72;93.06;93391.22;5030237;28;20145;-77
2022/11/10 13:17:10;;;;;;;6.07;3.67;;;;;;;14.74;94.67;93389.06;5030055;28;20037;-77
2022/11/10 13:19:57;;;;;;;5.82;3.55;;;;;;;14.85;93.74;93391.53;5035671;28;20051;-78
2022/11/10 13:22:41;;;;;;;5.80;3.60;;;;;;;15.05;91.66;93400.97;5052241;28;20064;-77